METAR Formatted Surface Weather Observation
Issued by NWS

Home | Current Version | Previous Version | Text Only | Print | Product List | Glossary On
Versions: 1 2 3 4 5 6 7 8 9 10 11 12 13
000
SAUS46 KLOX 230653
MTRNZY
METAR KNZY 230652Z AUTO 20011KT 7SM SCT015 SCT022 OVC065 14/13 A3000
RMK AO2 RAE07 SLP159 T01440133 PNO $



USA.gov is the U.S. government's official web portal to all federal, state and local government web resources and services.